createdAt,value
2023-09-30T00:00:37.872Z,101281.75
2023-09-30T00:05:34.333Z,101291.59
2023-09-30T00:10:31.455Z,101298.94
2023-09-30T00:15:27.958Z,101305.03
2023-09-30T00:20:24.447Z,101312.16
2023-09-30T00:25:22.031Z,101317.72
2023-09-30T00:30:18.623Z,101335.66
2023-09-30T00:35:15.343Z,101343.50
2023-09-30T00:40:15.114Z,101347.84
2023-09-30T00:45:12.206Z,101345.53
2023-09-30T00:50:11.664Z,101370.59
2023-09-30T00:55:09.461Z,101361.81
2023-09-30T01:00:13.089Z,101357.03
2023-09-30T01:05:10.531Z,101355.88
2023-09-30T01:10:07.922Z,101361.13
2023-09-30T01:15:08.653Z,101354.50
2023-09-30T01:20:07.705Z,101363.06
2023-09-30T01:25:05.812Z,101358.66
2023-09-30T01:30:02.251Z,101357.81
2023-09-30T01:34:58.676Z,101356.59
2023-09-30T01:39:56.249Z,101355.00
2023-09-30T01:44:52.822Z,101358.03
2023-09-30T01:49:49.252Z,101363.34
2023-09-30T01:54:45.761Z,101374.72
2023-09-30T01:59:42.238Z,101366.03
2023-09-30T02:04:38.756Z,101357.53
2023-09-30T02:09:35.288Z,101376.59
2023-09-30T02:14:32.841Z,101383.00
2023-09-30T02:19:29.871Z,101387.38
2023-09-30T02:24:26.607Z,101404.00
2023-09-30T02:29:23.056Z,101410.72
2023-09-30T02:34:19.490Z,101407.13
2023-09-30T02:39:17.421Z,101416.25
2023-09-30T02:44:13.882Z,101412.66
2023-09-30T02:49:10.349Z,101432.44
2023-09-30T02:54:06.945Z,101431.13
2023-09-30T02:59:03.529Z,101429.22
2023-09-30T03:04:00.274Z,101437.00
2023-09-30T03:08:56.897Z,101424.09
2023-09-30T03:13:53.485Z,101417.81
2023-09-30T03:18:50.406Z,101396.88
2023-09-30T03:23:47.766Z,101389.84
2023-09-30T03:28:44.238Z,101399.38
2023-09-30T03:33:40.762Z,101407.78
2023-09-30T03:38:37.411Z,101421.09
2023-09-30T03:43:35.640Z,101429.78
2023-09-30T03:48:32.135Z,101424.06
2023-09-30T03:53:28.536Z,101413.81
2023-09-30T03:58:24.967Z,101413.16
2023-09-30T04:03:21.826Z,101424.81
2023-09-30T04:08:18.483Z,101419.69
2023-09-30T04:13:14.885Z,101413.91
2023-09-30T04:18:12.727Z,101411.50
2023-09-30T04:23:11.018Z,101411.50
2023-09-30T04:28:09.819Z,101417.97
2023-09-30T04:33:08.119Z,101412.13
2023-09-30T04:38:05.870Z,101410.59
2023-09-30T04:43:02.384Z,101417.31
2023-09-30T04:47:58.900Z,101414.84
2023-09-30T04:52:55.433Z,101415.25
2023-09-30T04:57:52.129Z,101424.94
2023-09-30T05:02:49.146Z,101416.31
2023-09-30T05:07:47.893Z,101409.66
2023-09-30T05:12:47.541Z,101408.41
2023-09-30T05:17:47.701Z,101424.16
2023-09-30T05:22:47.004Z,101423.22
2023-09-30T05:27:45.154Z,101434.13
2023-09-30T05:32:41.695Z,101415.81
2023-09-30T05:37:38.346Z,101430.41
2023-09-30T05:42:36.969Z,101427.03
2023-09-30T05:47:33.548Z,101422.47
2023-09-30T05:52:30.229Z,101436.84
2023-09-30T05:57:27.451Z,101455.94
2023-09-30T06:02:24.196Z,101479.13
2023-09-30T06:07:21.251Z,101472.50
2023-09-30T06:12:18.014Z,101476.75
2023-09-30T06:17:15.715Z,101489.78
2023-09-30T06:22:12.177Z,101491.31
2023-09-30T06:27:08.621Z,101492.31
2023-09-30T06:32:05.126Z,101505.88
2023-09-30T06:37:01.875Z,101503.84
2023-09-30T06:41:58.351Z,101505.09
2023-09-30T06:46:56.139Z,101528.66
2023-09-30T06:51:53.159Z,101531.13
2023-09-30T06:56:49.711Z,101541.09
2023-09-30T07:01:46.322Z,101538.81
2023-09-30T07:06:42.930Z,101543.91
2023-09-30T07:11:39.852Z,101541.53
2023-09-30T07:16:36.679Z,101539.81
2023-09-30T07:21:33.167Z,101556.06
2023-09-30T07:26:29.813Z,101553.41
2023-09-30T07:31:26.979Z,101539.31
2023-09-30T07:36:23.551Z,101519.09
2023-09-30T07:41:20.038Z,101504.94
2023-09-30T07:46:16.814Z,101479.47
2023-09-30T07:51:14.595Z,101468.16
2023-09-30T07:56:11.094Z,101481.53
2023-09-30T08:01:09.341Z,101459.16
2023-09-30T08:06:08.773Z,101448.03
2023-09-30T08:11:06.441Z,101449.91
2023-09-30T08:16:03.081Z,101442.81
2023-09-30T08:20:59.937Z,101449.44
2023-09-30T08:25:59.507Z,101452.88
2023-09-30T08:31:00.132Z,101449.03
2023-09-30T08:35:56.715Z,101445.75
2023-09-30T08:40:53.769Z,101444.53
2023-09-30T08:45:55.142Z,101455.03
2023-09-30T08:50:53.734Z,101451.72
2023-09-30T08:55:54.357Z,101453.53
2023-09-30T09:00:51.860Z,101451.03
2023-09-30T09:05:56.680Z,101450.13
2023-09-30T09:11:01.598Z,101451.81
2023-09-30T09:16:10.833Z,101449.63
2023-09-30T09:21:15.132Z,101448.69
2023-09-30T09:26:28.917Z,101449.88
2023-09-30T09:31:43.566Z,101438.28
2023-09-30T09:36:42.966Z,101440.78
2023-09-30T09:41:55.651Z,101440.03
2023-09-30T09:46:52.410Z,101439.66
2023-09-30T09:51:50.069Z,101431.44
2023-09-30T09:56:47.267Z,101428.16
2023-09-30T10:01:44.460Z,101432.06
2023-09-30T10:06:43.116Z,101417.47
2023-09-30T10:11:41.133Z,101428.38
2023-09-30T10:16:37.848Z,101428.31
2023-09-30T10:21:34.793Z,101432.75
2023-09-30T10:26:31.272Z,101432.63
2023-09-30T10:31:28.070Z,101441.69
2023-09-30T10:36:32.582Z,101444.44
2023-09-30T10:41:41.543Z,101434.41
2023-09-30T10:46:38.147Z,101417.78
2023-09-30T10:51:39.280Z,101416.81
2023-09-30T10:56:36.058Z,101414.63
2023-09-30T11:01:36.335Z,101428.72
2023-09-30T11:06:33.460Z,101433.53
2023-09-30T11:11:38.945Z,101432.13
2023-09-30T11:16:45.488Z,101435.69
2023-09-30T11:21:44.600Z,101439.91
2023-09-30T11:26:44.412Z,101439.94
2023-09-30T11:31:45.542Z,101445.59
2023-09-30T11:36:50.125Z,101447.78
2023-09-30T11:41:46.674Z,101439.59
2023-09-30T11:46:53.982Z,101439.44
2023-09-30T11:51:50.540Z,101422.34
2023-09-30T11:56:49.024Z,101407.47
2023-09-30T12:01:53.179Z,101407.84
2023-09-30T12:06:55.652Z,101407.66
2023-09-30T12:11:56.801Z,101402.75
2023-09-30T12:16:53.402Z,101390.38
2023-09-30T12:21:50.126Z,101395.41
2023-09-30T12:26:49.231Z,101381.81
2023-09-30T12:31:52.960Z,101375.81
2023-09-30T12:36:50.787Z,101375.81
2023-09-30T12:41:47.316Z,101375.94
2023-09-30T12:46:43.890Z,101368.69
2023-09-30T12:51:40.656Z,101376.41
2023-09-30T12:56:37.324Z,101370.72
2023-09-30T13:01:36.455Z,101362.50
2023-09-30T13:06:36.426Z,101360.47
2023-09-30T13:11:34.291Z,101356.84
2023-09-30T13:16:33.467Z,101349.72
2023-09-30T13:21:30.063Z,101342.56
2023-09-30T13:26:27.221Z,101351.53
2023-09-30T13:31:24.003Z,101350.53
2023-09-30T13:36:20.506Z,101335.34
2023-09-30T13:41:16.979Z,101330.78
2023-09-30T13:46:13.694Z,101341.31
2023-09-30T13:51:11.828Z,101338.97
2023-09-30T13:56:08.480Z,101338.03
2023-09-30T14:01:05.063Z,101339.50
2023-09-30T14:06:01.639Z,101329.69
2023-09-30T14:10:58.129Z,101324.75
2023-09-30T14:15:54.836Z,101315.91
2023-09-30T14:20:51.595Z,101307.31
2023-09-30T14:25:48.127Z,101294.53
2023-09-30T14:30:45.779Z,101297.78
2023-09-30T14:35:44.972Z,101278.81
2023-09-30T14:40:41.979Z,101277.94
2023-09-30T14:45:43.048Z,101273.75
2023-09-30T14:50:39.621Z,101266.72
2023-09-30T14:55:36.149Z,101266.75
2023-09-30T15:00:32.663Z,101260.09
2023-09-30T15:05:29.241Z,101269.13
2023-09-30T15:10:26.045Z,101263.09
2023-09-30T15:15:22.525Z,101270.50
2023-09-30T15:20:19.008Z,101263.41
2023-09-30T15:25:15.652Z,101266.97
2023-09-30T15:30:12.738Z,101276.63
2023-09-30T15:35:09.610Z,101279.44
2023-09-30T15:40:07.117Z,101286.72
2023-09-30T15:45:04.585Z,101271.16
2023-09-30T15:50:01.083Z,101271.78
2023-09-30T15:54:58.018Z,101271.56
2023-09-30T15:59:54.519Z,101266.28
2023-09-30T16:04:51.074Z,101273.66
2023-09-30T16:09:47.544Z,101266.72
2023-09-30T16:14:44.016Z,101276.63
2023-09-30T16:19:40.492Z,101270.78
2023-09-30T16:24:36.944Z,101280.72
2023-09-30T16:29:33.390Z,101289.88
2023-09-30T16:34:29.879Z,101279.03
2023-09-30T16:39:26.778Z,101277.31
2023-09-30T16:44:23.308Z,101278.53
2023-09-30T16:49:19.981Z,101270.97
2023-09-30T16:54:16.482Z,101268.28
2023-09-30T16:59:14.870Z,101267.31
2023-09-30T17:04:11.848Z,101265.16
2023-09-30T17:09:08.752Z,101280.03
2023-09-30T17:14:05.327Z,101270.38
2023-09-30T17:19:01.857Z,101285.59
2023-09-30T17:23:58.601Z,101279.53
2023-09-30T17:28:55.219Z,101284.81
2023-09-30T17:33:51.852Z,101288.56
2023-09-30T17:38:49.489Z,101289.19
2023-09-30T17:43:45.968Z,101295.41
2023-09-30T17:48:46.607Z,101296.16
2023-09-30T17:53:44.175Z,101298.94
2023-09-30T17:58:40.661Z,101300.03
2023-09-30T18:03:37.407Z,101300.41
2023-09-30T18:08:34.403Z,101302.34
2023-09-30T18:13:32.667Z,101300.16
2023-09-30T18:18:30.492Z,101291.63
2023-09-30T18:23:27.040Z,101302.84
2023-09-30T18:28:23.530Z,101293.81
2023-09-30T18:33:20.080Z,101302.34
2023-09-30T18:38:17.090Z,101293.69
2023-09-30T18:43:14.973Z,101295.28
2023-09-30T18:48:11.744Z,101293.81
2023-09-30T18:53:09.595Z,101308.16
2023-09-30T18:58:07.197Z,101304.16
2023-09-30T19:03:09.691Z,101295.38
2023-09-30T19:08:07.766Z,101297.44
2023-09-30T19:13:04.418Z,101304.25
2023-09-30T19:18:01.282Z,101300.09
2023-09-30T19:22:58.130Z,101302.16
2023-09-30T19:27:54.646Z,101297.97
2023-09-30T19:32:51.156Z,101309.97
2023-09-30T19:37:47.684Z,101308.88
2023-09-30T19:42:44.417Z,101307.75
2023-09-30T19:47:40.958Z,101307.63
2023-09-30T19:52:37.466Z,101310.75
2023-09-30T19:57:33.985Z,101311.09
2023-09-30T20:02:30.656Z,101309.63
2023-09-30T20:07:27.234Z,101300.75
2023-09-30T20:12:24.117Z,101296.78
2023-09-30T20:17:20.528Z,101283.06
2023-09-30T20:22:17.056Z,101281.97
2023-09-30T20:27:13.651Z,101268.09
2023-09-30T20:32:10.140Z,101264.81
2023-09-30T20:37:06.699Z,101282.56
2023-09-30T20:42:03.546Z,101287.28
2023-09-30T20:47:00.161Z,101287.00
2023-09-30T20:51:56.833Z,101287.88
2023-09-30T20:56:55.124Z,101294.06
2023-09-30T21:01:52.264Z,101294.28
2023-09-30T21:06:49.069Z,101287.25
2023-09-30T21:11:45.643Z,101286.41
2023-09-30T21:16:42.351Z,101274.84
2023-09-30T21:21:40.437Z,101278.03
2023-09-30T21:26:37.465Z,101279.50
2023-09-30T21:31:34.413Z,101284.63
2023-09-30T21:36:30.922Z,101272.72
2023-09-30T21:41:28.177Z,101281.94
2023-09-30T21:46:24.936Z,101289.22
2023-09-30T21:51:21.541Z,101293.44
2023-09-30T21:56:18.024Z,101302.25
2023-09-30T22:01:16.001Z,101297.38
2023-09-30T22:06:13.942Z,101305.09
2023-09-30T22:11:10.519Z,101298.28
2023-09-30T22:16:08.212Z,101296.16
2023-09-30T22:21:04.901Z,101290.44
2023-09-30T22:26:01.330Z,101284.09
2023-09-30T22:30:59.883Z,101290.81
2023-09-30T22:35:56.635Z,101283.78
2023-09-30T22:40:53.123Z,101278.19
2023-09-30T22:45:49.645Z,101275.66
2023-09-30T22:50:46.217Z,101285.09
2023-09-30T22:55:43.474Z,101282.91
2023-09-30T23:00:41.237Z,101282.47
2023-09-30T23:05:37.647Z,101259.41
2023-09-30T23:10:34.648Z,101256.84
2023-09-30T23:15:31.170Z,101255.88
2023-09-30T23:20:27.656Z,101234.41
2023-09-30T23:25:29.058Z,101223.72
2023-09-30T23:30:27.333Z,101230.97
2023-09-30T23:35:26.011Z,101234.41
2023-09-30T23:40:24.103Z,101243.16
2023-09-30T23:45:21.395Z,101236.59
2023-09-30T23:50:17.930Z,101246.00
2023-09-30T23:55:14.660Z,101221.94
